Time;durP1;ratioP1;P1;durP2;ratioP2;P2;SDS_P1;SDS_P2;PMS_P1;PMS_P2;Temp;Humidity;BMP_temperature;BMP_pressure;BME280_temperature;BME280_humidity;BME280_pressure;Samples;Min_cycle;Max_cycle;Signal;HPM_P1;HPM_P2
2020/12/28 00:01:26;;;;;;;7.70;5.90;;;3.30;99.90;;;;;;6240321;23;20000;-88
2020/12/28 00:03:52;;;;;;;8.73;7.10;;;3.20;99.90;;;;;;6240443;23;20004;-84
2020/12/28 00:06:17;;;;;;;12.10;7.40;;;3.20;99.90;;;;;;6239747;23;20008;-86
2020/12/28 00:08:46;;;;;;;10.90;6.93;;;3.20;99.90;;;;;;6239349;23;20004;-87
2020/12/28 00:11:17;;;;;;;10.90;7.13;;;3.20;99.90;;;;;;6240563;23;20004;-87
2020/12/28 00:13:43;;;;;;;16.05;8.18;;;3.20;99.90;;;;;;6238681;23;20012;-85
2020/12/28 00:16:11;;;;;;;10.07;7.20;;;3.20;99.90;;;;;;6236772;23;20004;-85
2020/12/28 00:18:37;;;;;;;10.40;7.37;;;3.20;99.90;;;;;;6243003;23;20378;-95
2020/12/28 00:21:05;;;;;;;11.70;7.63;;;3.20;99.90;;;;;;6242168;23;20452;-91
2020/12/28 00:23:31;;;;;;;14.57;7.13;;;3.30;99.90;;;;;;6241323;23;20014;-91
2020/12/28 00:25:57;;;;;;;11.43;7.10;;;3.20;99.90;;;;;;6242382;23;20099;-93
2020/12/28 00:28:22;;;;;;;9.83;6.57;;;3.30;99.90;;;;;;6239900;23;20011;-85
2020/12/28 00:30:48;;;;;;;12.70;6.63;;;3.30;99.90;;;;;;6239129;23;20008;-86
2020/12/28 00:33:13;;;;;;;8.70;6.20;;;3.30;99.90;;;;;;6239430;23;20071;-85
2020/12/28 00:35:39;;;;;;;12.43;6.07;;;3.30;99.90;;;;;;6239473;23;19996;-85
2020/12/28 00:38:05;;;;;;;8.93;6.70;;;3.30;99.90;;;;;;6239237;23;20054;-84
2020/12/28 00:40:30;;;;;;;8.70;6.90;;;3.30;99.90;;;;;;6239188;23;20019;-86
2020/12/28 00:42:56;;;;;;;10.10;6.50;;;3.30;99.90;;;;;;6242564;23;20255;-87
2020/12/28 00:45:22;;;;;;;10.10;6.50;;;3.20;99.90;;;;;;6244264;23;20094;-87
2020/12/28 00:47:47;;;;;;;9.70;6.23;;;3.40;99.90;;;;;;6243878;23;20432;-87
2020/12/28 00:50:13;;;;;;;8.13;6.10;;;3.30;99.90;;;;;;6244907;23;20028;-87
2020/12/28 00:52:38;;;;;;;11.80;7.27;;;3.30;99.90;;;;;;6244029;23;20011;-87
2020/12/28 00:55:04;;;;;;;7.80;6.00;;;3.20;99.90;;;;;;6243917;23;20004;-87
2020/12/28 00:57:30;;;;;;;11.50;7.37;;;3.20;99.90;;;;;;6245704;23;20008;-86
2020/12/28 00:59:56;;;;;;;11.07;6.50;;;3.20;99.90;;;;;;6245479;23;20015;-87
2020/12/28 01:02:22;;;;;;;8.77;6.13;;;3.20;99.90;;;;;;6244015;23;20066;-88
2020/12/28 01:04:47;;;;;;;9.20;6.30;;;3.10;99.90;;;;;;6243829;23;20436;-88
2020/12/28 01:07:16;;;;;;;8.83;5.83;;;3.10;99.90;;;;;;6243654;23;20425;-87
2020/12/28 01:09:42;;;;;;;9.03;5.80;;;3.20;99.90;;;;;;6244972;23;20004;-87
2020/12/28 01:12:07;;;;;;;11.70;5.77;;;3.10;99.90;;;;;;6245151;23;20086;-88
2020/12/28 01:14:33;;;;;;;8.37;6.20;;;3.10;99.90;;;;;;6243964;23;20000;-87
2020/12/28 01:16:59;;;;;;;8.73;5.73;;;3.10;99.90;;;;;;6245292;23;20416;-88
2020/12/28 01:19:24;;;;;;;7.37;5.33;;;3.10;99.90;;;;;;6245355;23;19996;-86
2020/12/28 01:21:50;;;;;;;6.80;4.43;;;3.00;99.90;;;;;;6243724;23;20005;-88
2020/12/28 01:24:15;;;;;;;7.40;4.93;;;3.00;99.90;;;;;;6243763;23;20293;-88
2020/12/28 01:26:43;;;;;;;13.90;5.77;;;3.00;99.90;;;;;;6245166;23;20004;-88
2020/12/28 01:29:10;;;;;;;8.87;5.90;;;3.00;99.90;;;;;;6245354;22;20066;-88
2020/12/28 01:31:36;;;;;;;8.33;5.90;;;2.90;99.90;;;;;;6243495;23;20004;-89
2020/12/28 01:34:02;;;;;;;7.10;4.90;;;2.80;99.90;;;;;;6245407;22;20005;-89
2020/12/28 01:36:27;;;;;;;9.30;5.63;;;2.80;99.90;;;;;;6243944;23;20474;-89
2020/12/28 01:38:53;;;;;;;6.47;4.67;;;2.70;99.90;;;;;;6243766;23;20000;-90
2020/12/28 01:41:19;;;;;;;7.47;4.37;;;2.70;99.90;;;;;;6244226;23;20008;-89
2020/12/28 01:43:45;;;;;;;5.73;4.27;;;2.70;99.90;;;;;;6245450;23;20005;-90
2020/12/28 01:46:12;;;;;;;4.37;3.97;;;2.70;99.90;;;;;;6244088;23;20051;-90
2020/12/28 01:48:37;;;;;;;5.13;3.73;;;2.70;99.90;;;;;;6244154;23;20022;-90
2020/12/28 01:51:03;;;;;;;4.87;4.37;;;2.70;99.90;;;;;;6245697;22;20075;-91
2020/12/28 01:53:29;;;;;;;5.53;3.33;;;2.70;99.90;;;;;;6245450;22;20008;-90
2020/12/28 01:56:03;;;;;;;4.27;3.90;;;2.60;99.90;;;;;;6245843;23;20028;-91
2020/12/28 01:58:29;;;;;;;6.27;5.23;;;2.60;99.90;;;;;;6244769;23;20004;-91
2020/12/28 02:00:59;;;;;;;7.37;4.97;;;2.60;99.90;;;;;;6244767;23;20007;-91
2020/12/28 02:03:26;;;;;;;6.10;4.97;;;2.60;99.90;;;;;;6246650;22;20079;-92
2020/12/28 02:05:52;;;;;;;4.10;3.70;;;2.60;99.90;;;;;;6244957;23;20011;-92
2020/12/28 02:08:18;;;;;;;5.50;4.27;;;2.60;99.90;;;;;;6244934;23;20087;-92
2020/12/28 02:10:44;;;;;;;4.47;4.07;;;2.60;99.90;;;;;;6244995;23;20074;-92
2020/12/28 02:13:10;;;;;;;3.90;3.57;;;2.50;99.90;;;;;;6246033;23;20031;-92
2020/12/28 02:15:36;;;;;;;4.20;3.67;;;2.50;99.90;;;;;;6219270;23;20004;-92
2020/12/28 02:18:02;;;;;;;4.97;3.67;;;2.50;99.90;;;;;;6244464;23;20022;-91
2020/12/28 02:20:28;;;;;;;4.93;4.00;;;2.50;99.90;;;;;;6244304;23;20011;-90
2020/12/28 02:22:53;;;;;;;6.63;4.13;;;2.40;99.90;;;;;;6244315;23;20091;-88
2020/12/28 02:25:21;;;;;;;4.63;3.80;;;2.40;99.90;;;;;;6243916;23;20091;-91
2020/12/28 02:27:47;;;;;;;4.23;3.77;;;2.40;99.90;;;;;;6243951;23;20058;-91
2020/12/28 02:30:13;;;;;;;8.70;3.70;;;2.40;99.90;;;;;;6244120;23;20008;-91
2020/12/28 02:32:38;;;;;;;3.77;3.47;;;2.30;99.90;;;;;;6244094;23;20004;-89
2020/12/28 02:35:05;;;;;;;3.47;3.13;;;2.30;99.90;;;;;;6243891;23;20345;-90
2020/12/28 02:37:31;;;;;;;3.50;3.20;;;2.30;99.90;;;;;;6244616;23;20012;-91
2020/12/28 02:40:00;;;;;;;3.70;3.40;;;2.20;99.90;;;;;;6244464;23;20011;-90
2020/12/28 02:42:25;;;;;;;4.67;3.60;;;2.30;99.90;;;;;;6244199;23;20008;-90
2020/12/28 02:44:51;;;;;;;4.47;3.77;;;2.30;99.90;;;;;;6244219;23;20051;-89
2020/12/28 02:47:17;;;;;;;4.50;3.80;;;2.30;99.90;;;;;;6219856;23;20004;-91
2020/12/28 02:49:42;;;;;;;3.63;3.17;;;2.30;99.90;;;;;;6246099;22;20004;-90
2020/12/28 02:52:09;;;;;;;3.73;3.10;;;2.30;99.90;;;;;;6245984;23;20310;-89
2020/12/28 02:54:34;;;;;;;5.20;3.03;;;2.40;99.90;;;;;;6246190;23;20450;-89
2020/12/28 02:57:03;;;;;;;4.00;3.13;;;2.40;99.90;;;;;;6246034;23;20075;-89
2020/12/28 02:59:28;;;;;;;3.27;3.03;;;2.40;99.90;;;;;;6244836;23;20013;-90
2020/12/28 03:01:54;;;;;;;3.23;3.00;;;2.40;99.90;;;;;;6246549;23;20035;-90
2020/12/28 03:04:20;;;;;;;3.30;2.67;;;2.40;99.90;;;;;;6246129;23;20383;-89
2020/12/28 03:06:48;;;;;;;3.27;2.97;;;2.40;99.90;;;;;;6244454;23;20004;-89
2020/12/28 03:09:14;;;;;;;4.10;3.07;;;2.40;99.90;;;;;;6244152;23;20446;-88
2020/12/28 03:11:39;;;;;;;4.33;3.30;;;2.50;99.90;;;;;;6243976;23;20008;-90
2020/12/28 03:14:05;;;;;;;5.13;2.50;;;2.50;99.90;;;;;;6244225;23;20083;-90
2020/12/28 03:16:31;;;;;;;3.30;2.43;;;2.50;99.90;;;;;;6245409;23;20087;-91
2020/12/28 03:18:56;;;;;;;5.17;3.00;;;2.60;99.90;;;;;;6246659;23;20051;-91
2020/12/28 03:21:22;;;;;;;4.93;2.50;;;2.70;99.90;;;;;;6245062;23;20004;-92
2020/12/28 03:23:48;;;;;;;2.50;2.30;;;2.70;99.90;;;;;;6245144;23;20004;-92
2020/12/28 03:26:14;;;;;;;2.53;2.33;;;2.80;99.90;;;;;;6245743;23;20332;-93
2020/12/28 03:28:39;;;;;;;2.70;2.43;;;2.80;99.90;;;;;;6218531;23;20091;-92
2020/12/28 03:31:05;;;;;;;4.37;3.03;;;2.80;99.90;;;;;;6245673;23;20008;-93
2020/12/28 03:33:31;;;;;;;2.40;2.00;;;2.80;99.90;;;;;;6220051;23;20008;-92
2020/12/28 03:35:56;;;;;;;2.23;2.03;;;2.90;99.90;;;;;;6246911;23;20459;-91
2020/12/28 03:38:22;;;;;;;3.13;2.50;;;2.90;99.90;;;;;;6245365;23;20011;-91
2020/12/28 03:40:48;;;;;;;2.17;2.00;;;3.00;99.90;;;;;;6245087;23;20000;-90
2020/12/28 03:43:14;;;;;;;2.40;2.17;;;3.00;99.90;;;;;;6246713;22;20007;-89
2020/12/28 03:45:39;;;;;;;2.63;1.70;;;3.00;99.90;;;;;;6246498;23;20004;-90
2020/12/28 03:48:05;;;;;;;3.17;2.10;;;3.00;99.90;;;;;;6246461;23;20442;-89
2020/12/28 03:50:31;;;;;;;2.23;2.03;;;3.10;99.90;;;;;;6245034;23;20004;-89
2020/12/28 03:52:56;;;;;;;4.20;2.00;;;3.10;99.90;;;;;;6244683;23;20028;-87
2020/12/28 03:55:22;;;;;;;2.70;1.70;;;3.10;99.90;;;;;;6244916;23;20004;-87
2020/12/28 03:57:48;;;;;;;4.60;1.90;;;3.10;99.90;;;;;;6246267;23;20119;-85
2020/12/28 04:00:13;;;;;;;2.20;2.00;;;3.10;99.90;;;;;;6245538;23;19996;-84
2020/12/28 04:02:42;;;;;;;1.73;1.63;;;3.10;99.90;;;;;;6244223;23;20014;-83
2020/12/28 04:05:08;;;;;;;2.37;2.13;;;3.00;99.90;;;;;;6245794;22;20011;-84
2020/12/28 04:07:33;;;;;;;3.40;1.83;;;3.10;99.90;;;;;;6245667;23;20008;-85
2020/12/28 04:09:59;;;;;;;2.97;2.23;;;3.10;99.90;;;;;;6244101;23;20110;-84
2020/12/28 04:12:24;;;;;;;2.27;1.93;;;3.10;99.90;;;;;;6245582;23;20011;-84
2020/12/28 04:14:50;;;;;;;2.73;1.60;;;3.10;99.90;;;;;;6245355;23;20251;-83
2020/12/28 04:17:16;;;;;;;1.70;1.60;;;3.20;99.90;;;;;;6243941;23;20000;-82
2020/12/28 04:19:41;;;;;;;1.60;1.50;;;3.10;99.90;;;;;;6243704;23;20515;-82
2020/12/28 04:22:07;;;;;;;2.33;1.90;;;3.20;99.90;;;;;;6245351;23;20000;-83
2020/12/28 04:24:35;;;;;;;1.80;1.70;;;3.20;99.90;;;;;;6243916;23;20000;-83
2020/12/28 04:27:00;;;;;;;1.70;1.60;;;3.20;99.90;;;;;;6245250;22;20019;-82
2020/12/28 04:29:26;;;;;;;1.93;1.83;;;3.30;99.90;;;;;;6245173;22;20071;-83
2020/12/28 04:31:52;;;;;;;1.90;1.80;;;3.20;99.90;;;;;;6245412;23;20363;-83
2020/12/28 04:34:17;;;;;;;1.83;1.53;;;3.30;99.90;;;;;;6245213;22;20004;-83
2020/12/28 04:36:43;;;;;;;1.83;1.60;;;3.20;99.90;;;;;;6243506;23;20016;-82
2020/12/28 04:39:09;;;;;;;1.77;1.67;;;3.20;99.90;;;;;;6245257;22;20000;-82
2020/12/28 04:41:35;;;;;;;2.60;1.60;;;3.10;99.90;;;;;;6243615;23;20000;-83
2020/12/28 04:44:01;;;;;;;2.03;1.33;;;3.10;99.90;;;;;;6243563;23;20015;-83
2020/12/28 04:46:29;;;;;;;1.90;1.70;;;3.10;99.90;;;;;;6243666;23;20024;-83
2020/12/28 04:48:55;;;;;;;2.13;1.60;;;3.10;99.90;;;;;;6243273;23;20008;-83
2020/12/28 04:51:28;;;;;;;2.50;1.33;;;3.10;99.90;;;;;;6243618;23;20047;-85
2020/12/28 04:53:54;;;;;;;1.43;1.33;;;3.10;99.90;;;;;;6245000;22;20000;-85
2020/12/28 04:56:21;;;;;;;1.33;1.23;;;3.10;99.90;;;;;;6243430;23;20004;-84
2020/12/28 04:58:47;;;;;;;1.60;1.50;;;3.10;99.90;;;;;;6245098;22;20130;-85
2020/12/28 05:01:13;;;;;;;1.53;1.43;;;3.10;99.90;;;;;;6243677;23;20416;-85
2020/12/28 05:03:40;;;;;;;1.77;1.40;;;3.10;99.90;;;;;;6245104;23;20000;-86
2020/12/28 05:06:06;;;;;;;1.30;1.20;;;3.20;99.90;;;;;;6245565;22;20004;-86
2020/12/28 05:08:32;;;;;;;1.40;1.30;;;3.20;99.90;;;;;;6244916;22;20008;-85
2020/12/28 05:11:09;;;;;;;1.27;1.17;;;3.20;99.90;;;;;;6243573;23;20032;-85
2020/12/28 05:13:35;;;;;;;1.43;1.33;;;3.30;99.90;;;;;;6245109;22;20019;-86
2020/12/28 05:16:01;;;;;;;1.40;1.30;;;3.30;99.90;;;;;;6243692;23;20011;-85
2020/12/28 05:18:26;;;;;;;1.50;1.40;;;3.40;99.90;;;;;;6243556;23;20004;-86
2020/12/28 05:20:52;;;;;;;1.60;1.50;;;3.40;99.90;;;;;;6243536;23;20432;-86
2020/12/28 05:23:18;;;;;;;1.40;1.30;;;3.40;99.90;;;;;;6243676;23;20055;-86
2020/12/28 05:25:46;;;;;;;1.30;1.23;;;3.50;99.90;;;;;;6243781;23;20335;-85
2020/12/28 05:28:19;;;;;;;1.37;1.27;;;3.50;99.90;;;;;;6244893;22;20388;-85
2020/12/28 05:30:45;;;;;;;1.47;1.37;;;3.50;99.90;;;;;;6243254;23;20104;-86
2020/12/28 05:33:12;;;;;;;1.30;1.20;;;3.50;99.90;;;;;;6243284;23;20008;-86
2020/12/28 05:35:38;;;;;;;1.77;1.27;;;3.50;99.90;;;;;;6243397;23;20501;-85
2020/12/28 05:38:08;;;;;;;1.10;1.10;;;3.50;99.90;;;;;;6217919;23;20008;-85
2020/12/28 05:40:35;;;;;;;1.07;1.00;;;3.50;99.90;;;;;;6217941;23;20004;-85
2020/12/28 05:43:01;;;;;;;0.90;0.90;;;3.50;99.90;;;;;;6217832;23;20008;-85
2020/12/28 05:45:27;;;;;;;0.90;0.90;;;3.50;99.90;;;;;;6217943;23;20014;-84
2020/12/28 05:47:55;;;;;;;1.03;1.03;;;3.50;99.90;;;;;;6217999;23;20040;-85
2020/12/28 05:50:27;;;;;;;1.30;1.20;;;3.50;99.90;;;;;;6217887;23;20012;-85
2020/12/28 05:52:55;;;;;;;1.48;0.80;;;3.50;99.90;;;;;;6217478;23;20004;-85
2020/12/28 05:55:24;;;;;;;0.80;0.80;;;3.50;99.90;;;;;;6244747;23;20001;-85
2020/12/28 05:57:50;;;;;;;2.03;1.90;;;3.50;99.90;;;;;;6218046;23;20039;-87
2020/12/28 06:00:17;;;;;;;0.70;0.70;;;3.50;99.90;;;;;;6217978;23;20034;-87
2020/12/28 06:02:42;;;;;;;0.83;0.83;;;3.50;99.90;;;;;;6217492;23;20031;-86
2020/12/28 06:05:10;;;;;;;1.20;1.10;;;3.50;99.90;;;;;;6244564;23;20000;-85
2020/12/28 06:07:36;;;;;;;0.90;0.90;;;3.60;99.90;;;;;;6217612;23;20008;-85
2020/12/28 06:10:03;;;;;;;0.60;0.60;;;3.50;99.90;;;;;;6244161;23;20000;-85
2020/12/28 06:12:29;;;;;;;0.80;0.80;;;3.60;99.90;;;;;;6244169;23;20004;-85
2020/12/28 06:14:54;;;;;;;0.90;0.70;;;3.60;99.90;;;;;;6217629;23;20073;-85
2020/12/28 06:17:32;;;;;;;0.50;0.50;;;3.60;99.90;;;;;;6217171;23;20011;-84
2020/12/28 06:20:00;;;;;;;0.70;0.70;;;3.60;99.90;;;;;;6217368;23;20004;-85
2020/12/28 06:22:26;;;;;;;0.73;0.70;;;3.60;99.90;;;;;;6217590;23;20004;-84
2020/12/28 06:25:00;;;;;;;0.93;0.93;;;3.70;99.90;;;;;;6244005;23;20057;-85
2020/12/28 06:27:31;;;;;;;0.67;0.67;;;3.70;99.90;;;;;;6217233;23;20019;-84
2020/12/28 06:30:16;;;;;;;0.67;0.60;;;3.70;99.90;;;;;;6243988;23;20000;-84
2020/12/28 06:32:54;;;;;;;;;;;;;;;;;;;;;
2020/12/28 06:35:34;;;;;;;0.80;0.80;;;3.80;99.90;;;;;;6243687;23;20103;-84
2020/12/28 06:38:00;;;;;;;1.63;0.63;;;3.90;99.90;;;;;;6186634;23;20017;-84
2020/12/28 06:40:30;;;;;;;0.70;0.70;;;4.00;99.90;;;;;;6187632;23;20008;-84
2020/12/28 06:43:06;;;;;;;1.10;0.70;;;4.00;99.90;;;;;;6187621;23;20009;-85
2020/12/28 06:45:32;;;;;;;0.53;0.53;;;4.10;99.90;;;;;;6213968;23;20068;-84
2020/12/28 06:47:57;;;;;;;0.80;0.80;;;4.10;99.90;;;;;;6187130;23;20091;-85
2020/12/28 06:50:23;;;;;;;0.50;0.50;;;4.10;99.90;;;;;;6187205;23;20062;-86
2020/12/28 06:52:53;;;;;;;0.70;0.70;;;4.20;99.90;;;;;;6187055;23;20463;-86
2020/12/28 06:55:18;;;;;;;0.60;0.60;;;4.30;99.90;;;;;;6186717;23;20099;-85
2020/12/28 06:57:44;;;;;;;0.65;0.63;;;4.30;99.90;;;;;;6213611;23;20024;-85
2020/12/28 07:00:19;;;;;;;1.03;0.93;;;4.30;99.90;;;;;;6213657;23;20030;-85
2020/12/28 07:02:52;;;;;;;0.52;0.52;;;4.30;99.90;;;;;;6186869;23;20004;-85
2020/12/28 07:05:27;;;;;;;0.80;0.80;;;4.30;99.90;;;;;;6213250;23;20001;-86
2020/12/28 07:07:53;;;;;;;0.75;0.70;;;4.30;99.90;;;;;;6188586;23;20455;-85
2020/12/28 07:10:24;;;;;;;0.70;0.70;;;4.20;99.90;;;;;;6188458;23;20004;-84
2020/12/28 07:12:50;;;;;;;1.15;0.55;;;4.20;99.90;;;;;;6185273;23;20013;-85
2020/12/28 07:15:18;;;;;;;2.00;0.80;;;4.20;99.90;;;;;;6184714;23;20340;-85
2020/12/28 07:17:44;;;;;;;0.95;0.90;;;4.20;99.90;;;;;;6211123;23;19996;-85
2020/12/28 07:20:13;;;;;;;0.85;0.85;;;4.20;99.90;;;;;;6184664;23;20005;-85
2020/12/28 07:22:40;;;;;;;1.10;0.70;;;4.20;99.90;;;;;;6184755;23;20273;-85
2020/12/28 07:25:08;;;;;;;1.00;0.90;;;4.20;99.90;;;;;;6186470;23;20064;-85
2020/12/28 07:27:34;;;;;;;1.00;1.00;;;4.20;99.90;;;;;;6186753;23;20008;-86
2020/12/28 07:30:11;;;;;;;0.45;0.45;;;4.20;99.90;;;;;;6186799;23;20080;-85
2020/12/28 07:32:37;;;;;;;3.22;0.63;;;4.20;99.90;;;;;;6187012;23;20015;-85
2020/12/28 07:35:04;;;;;;;0.65;0.65;;;4.20;99.90;;;;;;6186650;23;20001;-86
2020/12/28 07:37:42;;;;;;;0.40;0.40;;;4.20;99.90;;;;;;6229724;23;20103;-85
2020/12/28 07:40:09;;;;;;;0.75;0.60;;;4.20;99.90;;;;;;6242251;23;20031;-85
2020/12/28 07:42:34;;;;;;;0.40;0.40;;;4.20;99.90;;;;;;6243954;22;20007;-85
2020/12/28 07:45:05;;;;;;;0.50;0.50;;;4.20;99.90;;;;;;6242199;23;20352;-85
2020/12/28 07:47:54;;;;;;;0.50;0.50;;;4.20;99.90;;;;;;6242325;23;20016;-84
2020/12/28 07:50:20;;;;;;;0.52;0.38;;;4.10;99.90;;;;;;6240672;23;20012;-86
2020/12/28 07:53:09;;;;;;;0.30;0.30;;;4.10;99.90;;;;;;6232950;23;20019;-86
2020/12/28 07:55:42;;;;;;;0.52;0.50;;;4.20;99.90;;;;;;6241935;22;20075;-84
2020/12/28 07:58:27;;;;;;;0.40;0.40;;;4.20;99.90;;;;;;6242107;23;20011;-86
2020/12/28 08:00:56;;;;;;;0.30;0.30;;;4.20;99.90;;;;;;6243181;23;20008;-87
2020/12/28 08:03:44;;;;;;;0.30;0.30;;;4.20;99.90;;;;;;6243603;23;20011;-86
2020/12/28 08:06:11;;;;;;;0.30;0.30;;;4.20;99.90;;;;;;6243168;23;20012;-86
2020/12/28 08:08:36;;;;;;;0.40;0.40;;;4.20;99.90;;;;;;6243470;23;20139;-88
2020/12/28 08:11:04;;;;;;;0.30;0.30;;;4.10;99.90;;;;;;6243456;23;20440;-88
2020/12/28 08:13:31;;;;;;;0.40;0.40;;;4.10;99.90;;;;;;6245069;22;20433;-86
2020/12/28 08:16:10;;;;;;;0.20;0.20;;;4.10;99.90;;;;;;6246251;22;20007;-88
2020/12/28 08:18:49;;;;;;;0.83;0.83;;;4.20;99.90;;;;;;6220102;23;20070;-88
2020/12/28 08:21:15;;;;;;;0.37;0.37;;;4.20;99.90;;;;;;6245317;23;20055;-89
2020/12/28 08:23:52;;;;;;;0.83;0.50;;;4.20;99.90;;;;;;6243453;23;20018;-88
2020/12/28 08:26:20;;;;;;;1.30;0.30;;;4.20;99.90;;;;;;6245709;23;20075;-86
2020/12/28 08:29:00;;;;;;;1.40;0.27;;;4.20;99.90;;;;;;6243254;23;20004;-82
2020/12/28 08:31:34;;;;;;;0.38;0.38;;;4.20;99.90;;;;;;6244577;23;20079;-81
2020/12/28 08:34:13;;;;;;;1.20;1.10;;;4.20;99.90;;;;;;6244538;23;20216;-82
2020/12/28 08:36:50;;;;;;;1.58;0.65;;;4.20;99.90;;;;;;6245591;22;20054;-81
2020/12/28 08:39:24;;;;;;;0.52;0.52;;;4.20;99.90;;;;;;6245300;23;20001;-81
2020/12/28 08:41:59;;;;;;;0.63;0.63;;;4.30;99.90;;;;;;6242819;23;20008;-82
2020/12/28 08:44:38;;;;;;;0.65;0.65;;;4.30;99.90;;;;;;6241741;23;20016;-82
2020/12/28 08:47:08;;;;;;;0.43;0.43;;;4.40;99.90;;;;;;6243842;23;20444;-82
2020/12/28 08:49:35;;;;;;;0.70;0.70;;;4.40;99.90;;;;;;6244937;23;20082;-81
2020/12/28 08:52:11;;;;;;;0.60;0.30;;;4.40;99.90;;;;;;6244024;23;20095;-82
2020/12/28 08:54:37;;;;;;;0.40;0.40;;;4.40;99.90;;;;;;6244690;23;20014;-81
2020/12/28 08:57:03;;;;;;;10.50;0.47;;;4.50;99.90;;;;;;6246454;22;19996;-81
2020/12/28 08:59:29;;;;;;;0.55;0.55;;;4.50;99.90;;;;;;6244735;23;20008;-83
2020/12/28 09:01:56;;;;;;;0.60;0.60;;;4.50;99.90;;;;;;6244408;23;20036;-82
2020/12/28 09:04:23;;;;;;;0.85;0.85;;;4.50;99.90;;;;;;6245271;23;20008;-83
2020/12/28 09:06:49;;;;;;;1.40;0.50;;;4.60;99.90;;;;;;6244781;23;20004;-84
2020/12/28 09:09:15;;;;;;;0.30;0.30;;;4.50;99.90;;;;;;6244026;23;20027;-84
2020/12/28 09:11:45;;;;;;;0.50;0.50;;;4.50;99.90;;;;;;6244407;23;20039;-84
2020/12/28 09:14:11;;;;;;;3.45;1.33;;;4.60;99.90;;;;;;6243749;23;20012;-84
2020/12/28 09:16:37;;;;;;;0.30;0.30;;;4.60;99.90;;;;;;6243354;23;20503;-84
2020/12/28 09:19:04;;;;;;;8.18;4.45;;;4.60;99.90;;;;;;6244161;23;20004;-84
2020/12/28 09:21:30;;;;;;;1.30;1.20;;;4.60;99.90;;;;;;6244449;23;20000;-84
2020/12/28 09:23:56;;;;;;;0.40;0.40;;;4.70;99.90;;;;;;6244696;23;20008;-82
2020/12/28 09:26:22;;;;;;;1.13;0.60;;;4.70;99.90;;;;;;6243755;23;20369;-83
2020/12/28 09:28:47;;;;;;;0.70;0.43;;;4.70;99.90;;;;;;6243156;23;20344;-84
2020/12/28 09:31:13;;;;;;;0.38;0.38;;;4.60;99.90;;;;;;6243644;23;20008;-83
2020/12/28 09:33:39;;;;;;;0.43;0.43;;;4.60;99.90;;;;;;6243050;23;20083;-83
2020/12/28 09:36:05;;;;;;;0.30;0.30;;;4.60;99.90;;;;;;6243695;23;20392;-83
2020/12/28 09:38:31;;;;;;;0.60;0.40;;;4.60;99.90;;;;;;6243051;23;20428;-84
2020/12/28 09:40:56;;;;;;;0.40;0.40;;;4.60;99.90;;;;;;6246414;22;20423;-84
2020/12/28 09:43:23;;;;;;;1.25;0.60;;;4.60;99.90;;;;;;6245343;23;20010;-84
2020/12/28 09:45:49;;;;;;;0.30;0.30;;;4.60;99.90;;;;;;6243940;23;20367;-85
2020/12/28 09:48:14;;;;;;;0.43;0.30;;;4.50;99.90;;;;;;6244810;23;20011;-85
2020/12/28 09:50:40;;;;;;;0.93;0.40;;;4.50;99.90;;;;;;6243371;23;20071;-85
2020/12/28 09:53:06;;;;;;;0.60;0.60;;;4.50;99.90;;;;;;6244355;23;20043;-84
2020/12/28 09:55:31;;;;;;;0.68;0.68;;;4.40;99.90;;;;;;6245056;23;20439;-85
2020/12/28 09:57:57;;;;;;;0.60;0.60;;;4.50;99.90;;;;;;6243598;23;20007;-83
2020/12/28 10:00:23;;;;;;;0.60;0.60;;;4.40;99.90;;;;;;6245067;22;20301;-83
2020/12/28 10:02:48;;;;;;;0.40;0.40;;;4.40;99.90;;;;;;6243916;23;20008;-83
2020/12/28 10:05:14;;;;;;;0.60;0.57;;;4.40;99.90;;;;;;6240882;23;20439;-83
2020/12/28 10:07:40;;;;;;;1.65;1.55;;;4.40;99.90;;;;;;6241671;23;20014;-83
2020/12/28 10:10:07;;;;;;;0.82;0.82;;;4.40;99.90;;;;;;6242735;23;20004;-82
2020/12/28 10:12:34;;;;;;;0.70;0.70;;;4.40;99.90;;;;;;6241620;23;20588;-82
2020/12/28 10:14:59;;;;;;;0.80;0.80;;;4.50;99.90;;;;;;6238897;23;20332;-81
2020/12/28 10:17:25;;;;;;;3.45;2.20;;;4.50;99.90;;;;;;6239546;23;20008;-82
2020/12/28 10:19:55;;;;;;;2.72;2.03;;;4.50;99.90;;;;;;6239053;23;20062;-82
2020/12/28 10:22:21;;;;;;;2.42;2.03;;;4.50;99.90;;;;;;6240603;23;20004;-82
2020/12/28 10:24:47;;;;;;;3.42;3.13;;;4.50;99.90;;;;;;6240834;23;20007;-81
2020/12/28 10:27:13;;;;;;;1.80;1.67;;;4.60;99.90;;;;;;6241505;23;20090;-80
2020/12/28 10:29:42;;;;;;;1.58;1.48;;;4.60;99.90;;;;;;6241941;23;20035;-82
2020/12/28 10:32:17;;;;;;;0.70;0.70;;;4.60;99.90;;;;;;6242419;23;20004;-82
2020/12/28 10:34:56;;;;;;;1.60;1.25;;;4.60;99.90;;;;;;6241661;23;20432;-82
2020/12/28 10:37:24;;;;;;;1.20;1.08;;;4.70;99.90;;;;;;6243922;22;20036;-82
2020/12/28 10:39:52;;;;;;;2.53;1.73;;;4.70;99.90;;;;;;6244099;22;20011;-83
2020/12/28 10:42:18;;;;;;;1.13;0.52;;;4.80;99.90;;;;;;6244554;22;20030;-83
2020/12/28 10:45:29;;;;;;;0.80;0.80;;;4.80;99.90;;;;;;6242838;23;20008;-84
2020/12/28 10:47:54;;;;;;;0.70;0.52;;;4.90;99.90;;;;;;6240900;23;20096;-83
2020/12/28 10:57:31;;;;;;;1.85;1.40;;;5.00;99.90;;;;;;6244166;23;20046;-83
2020/12/28 11:00:03;;;;;;;0.52;0.40;;;5.00;99.90;;;;;;6237808;23;20087;-84
2020/12/28 11:03:01;;;;;;;0.90;0.90;;;5.10;99.90;;;;;;6240358;23;20011;-84
2020/12/28 11:05:33;;;;;;;0.75;0.75;;;5.10;99.90;;;;;;6243071;23;20328;-84
2020/12/28 11:08:17;;;;;;;0.60;0.60;;;5.10;99.90;;;;;;6242726;23;20332;-83
2020/12/28 11:10:43;;;;;;;0.50;0.50;;;5.10;99.90;;;;;;6244901;23;19997;-84
2020/12/28 11:13:08;;;;;;;0.85;0.85;;;5.10;99.90;;;;;;6240112;23;20004;-84
2020/12/28 11:15:35;;;;;;;0.40;0.40;;;5.10;99.90;;;;;;6241877;23;20004;-85
2020/12/28 11:18:02;;;;;;;0.43;0.43;;;5.10;99.90;;;;;;6239801;23;20352;-83
2020/12/28 11:20:28;;;;;;;0.40;0.40;;;5.10;99.90;;;;;;6243275;23;20317;-84
2020/12/28 11:23:03;;;;;;;0.60;0.60;;;5.10;99.90;;;;;;6241736;22;20055;-84
2020/12/28 11:25:29;;;;;;;0.28;0.28;;;5.20;99.90;;;;;;6243043;23;20091;-83
2020/12/28 11:27:54;;;;;;;0.30;0.30;;;5.30;99.90;;;;;;6240583;23;20036;-84
2020/12/28 11:30:23;;;;;;;0.30;0.30;;;5.30;99.90;;;;;;6242259;23;20031;-84
2020/12/28 11:32:52;;;;;;;0.60;0.60;;;5.40;99.90;;;;;;6240818;23;20008;-84
2020/12/28 11:35:18;;;;;;;1.45;0.73;;;5.40;99.90;;;;;;6242755;23;20028;-84
2020/12/28 11:38:01;;;;;;;0.50;0.50;;;5.50;99.90;;;;;;6241374;23;20019;-84
2020/12/28 11:44:20;;;;;;;2.78;1.25;;;5.70;99.90;;;;;;6245897;23;20007;-84
2020/12/28 11:46:46;;;;;;;1.00;0.93;;;5.80;99.90;;;;;;6243922;23;20004;-85
2020/12/28 11:49:12;;;;;;;2.35;2.15;;;5.80;99.90;;;;;;6243613;23;20527;-85
2020/12/28 11:51:42;;;;;;;1.20;1.10;;;5.90;99.90;;;;;;6244912;23;20328;-85
2020/12/28 11:55:09;;;;;;;0.47;0.47;;;5.80;99.90;;;;;;6246872;22;20000;-84
2020/12/28 11:57:04;;;;;;;0.60;0.60;;;5.90;99.90;;;;;;6232347;23;20032;-85
2020/12/28 11:59:37;;;;;;;0.75;0.75;;;5.90;99.90;;;;;;6245092;23;20336;-85
2020/12/28 12:04:54;;;;;;;1.15;1.05;;;5.90;99.90;;;;;;6244629;22;20011;-86
2020/12/28 12:07:22;;;;;;;1.40;1.30;;;5.90;99.90;;;;;;6247158;23;20000;-86
2020/12/28 12:09:49;;;;;;;0.80;0.80;;;5.90;99.90;;;;;;6244671;23;20005;-86
2020/12/28 12:12:15;;;;;;;5.30;3.30;;;5.90;99.90;;;;;;6244297;22;20043;-86
2020/12/28 12:14:41;;;;;;;3.38;2.75;;;5.80;99.90;;;;;;6243088;23;20638;-85
2020/12/28 12:17:08;;;;;;;2.10;1.90;;;5.80;99.90;;;;;;6244638;22;20003;-85
2020/12/28 12:19:35;;;;;;;1.42;1.33;;;5.80;99.90;;;;;;6242881;23;20008;-84
2020/12/28 12:22:01;;;;;;;4.55;2.05;;;5.80;99.90;;;;;;6242511;23;20610;-84
2020/12/28 12:24:26;;;;;;;1.85;1.73;;;5.80;99.90;;;;;;6244018;22;20028;-84
2020/12/28 12:26:52;;;;;;;2.92;2.15;;;5.70;99.90;;;;;;6244520;22;20336;-85
2020/12/28 12:29:27;;;;;;;1.85;1.67;;;5.60;99.90;;;;;;6242355;23;20051;-85
2020/12/28 12:31:53;;;;;;;3.10;2.60;;;5.50;99.90;;;;;;6245619;23;20502;-85
2020/12/28 12:34:19;;;;;;;2.28;2.08;;;5.60;99.90;;;;;;6245503;23;20004;-85
2020/12/28 12:36:46;;;;;;;1.73;1.63;;;5.50;99.90;;;;;;6245345;23;20020;-85
2020/12/28 12:39:11;;;;;;;1.92;1.70;;;5.50;99.90;;;;;;6245429;23;20008;-83
2020/12/28 12:41:38;;;;;;;2.00;1.90;;;5.50;99.90;;;;;;6245589;23;20502;-85
2020/12/28 12:44:03;;;;;;;1.60;1.50;;;5.50;99.90;;;;;;6247083;22;20046;-85
2020/12/28 12:46:29;;;;;;;2.08;1.77;;;5.60;99.90;;;;;;6245417;23;20012;-85
2020/12/28 12:48:55;;;;;;;2.90;1.98;;;5.50;99.90;;;;;;6245352;23;20340;-85
2020/12/28 12:51:22;;;;;;;2.65;1.55;;;5.50;99.90;;;;;;6245373;23;20391;-85
2020/12/28 12:53:47;;;;;;;1.77;1.52;;;5.50;99.90;;;;;;6245097;23;20008;-85
2020/12/28 12:56:18;;;;;;;2.72;2.20;;;5.50;99.90;;;;;;6245213;23;20057;-85
2020/12/28 12:58:44;;;;;;;4.18;2.10;;;5.50;99.90;;;;;;6244995;23;20107;-85
2020/12/28 13:01:13;;;;;;;2.55;2.35;;;5.50;99.90;;;;;;6246809;22;20028;-85
2020/12/28 13:03:38;;;;;;;2.10;1.88;;;5.40;99.90;;;;;;6244790;23;20023;-85
2020/12/28 13:06:04;;;;;;;2.92;1.95;;;5.40;99.90;;;;;;6244981;23;20012;-85
2020/12/28 13:08:32;;;;;;;2.30;2.20;;;5.40;99.90;;;;;;6244750;23;20004;-85
2020/12/28 13:10:58;;;;;;;3.13;2.92;;;5.40;99.90;;;;;;6244780;23;19996;-85
2020/12/28 13:13:24;;;;;;;4.10;3.65;;;5.40;99.90;;;;;;6246422;23;20016;-85
2020/12/28 13:15:49;;;;;;;3.78;3.40;;;5.30;99.90;;;;;;6244117;23;20004;-84